sensor_id;sensor_type;location;lat;lon;timestamp;P1;durP1;ratioP1;P2;durP2;ratioP2
33862;SDS011;20158;51.436;-2.742;2023-06-24T00:01:26;3.30;;;3.00;;
33862;SDS011;20158;51.436;-2.742;2023-06-24T00:03:52;5.05;;;3.38;;
33862;SDS011;20158;51.436;-2.742;2023-06-24T00:06:19;4.57;;;3.47;;
33862;SDS011;20158;51.436;-2.742;2023-06-24T00:08:46;3.50;;;3.10;;
33862;SDS011;20158;51.436;-2.742;2023-06-24T00:11:12;4.95;;;3.13;;
33862;SDS011;20158;51.436;-2.742;2023-06-24T00:13:39;3.95;;;3.47;;
33862;SDS011;20158;51.436;-2.742;2023-06-24T00:16:06;3.75;;;3.30;;
33862;SDS011;20158;51.436;-2.742;2023-06-24T00:18:33;5.20;;;3.28;;
33862;SDS011;20158;51.436;-2.742;2023-06-24T00:21:00;4.32;;;3.80;;
33862;SDS011;20158;51.436;-2.742;2023-06-24T00:23:29;3.35;;;3.05;;
33862;SDS011;20158;51.436;-2.742;2023-06-24T00:26:00;3.50;;;3.20;;
33862;SDS011;20158;51.436;-2.742;2023-06-24T00:28:26;3.33;;;3.03;;
33862;SDS011;20158;51.436;-2.742;2023-06-24T00:30:53;4.93;;;3.08;;
33862;SDS011;20158;51.436;-2.742;2023-06-24T00:33:19;3.55;;;3.20;;
33862;SDS011;20158;51.436;-2.742;2023-06-24T00:35:49;3.83;;;3.33;;
33862;SDS011;20158;51.436;-2.742;2023-06-24T00:38:15;4.95;;;3.58;;
33862;SDS011;20158;51.436;-2.742;2023-06-24T00:40:52;3.80;;;3.50;;
33862;SDS011;20158;51.436;-2.742;2023-06-24T00:43:18;4.03;;;3.63;;
33862;SDS011;20158;51.436;-2.742;2023-06-24T00:45:45;3.55;;;3.08;;
33862;SDS011;20158;51.436;-2.742;2023-06-24T00:48:14;4.00;;;3.35;;
33862;SDS011;20158;51.436;-2.742;2023-06-24T00:50:40;4.82;;;3.15;;
33862;SDS011;20158;51.436;-2.742;2023-06-24T00:53:11;4.65;;;3.15;;
33862;SDS011;20158;51.436;-2.742;2023-06-24T00:55:40;3.15;;;2.95;;
33862;SDS011;20158;51.436;-2.742;2023-06-24T00:58:06;3.25;;;2.85;;
33862;SDS011;20158;51.436;-2.742;2023-06-24T01:00:35;5.05;;;3.80;;
33862;SDS011;20158;51.436;-2.742;2023-06-24T01:03:01;3.20;;;2.78;;
33862;SDS011;20158;51.436;-2.742;2023-06-24T01:05:29;6.18;;;3.90;;
33862;SDS011;20158;51.436;-2.742;2023-06-24T01:08:00;3.67;;;3.38;;
33862;SDS011;20158;51.436;-2.742;2023-06-24T01:10:28;4.05;;;3.67;;
33862;SDS011;20158;51.436;-2.742;2023-06-24T01:12:55;4.35;;;3.55;;
33862;SDS011;20158;51.436;-2.742;2023-06-24T01:15:21;3.08;;;2.88;;
33862;SDS011;20158;51.436;-2.742;2023-06-24T01:36:49;3.60;;;3.20;;
33862;SDS011;20158;51.436;-2.742;2023-06-24T01:39:26;3.53;;;3.03;;
33862;SDS011;20158;51.436;-2.742;2023-06-24T01:42:02;5.07;;;4.35;;
33862;SDS011;20158;51.436;-2.742;2023-06-24T01:44:34;3.95;;;3.58;;
33862;SDS011;20158;51.436;-2.742;2023-06-24T01:47:03;4.25;;;3.85;;
33862;SDS011;20158;51.436;-2.742;2023-06-24T01:49:32;3.80;;;3.38;;
33862;SDS011;20158;51.436;-2.742;2023-06-24T01:54:32;4.30;;;3.13;;
33862;SDS011;20158;51.436;-2.742;2023-06-24T01:57:01;3.70;;;3.40;;
33862;SDS011;20158;51.436;-2.742;2023-06-24T01:59:39;3.70;;;3.35;;
33862;SDS011;20158;51.436;-2.742;2023-06-24T02:02:08;5.13;;;3.28;;
33862;SDS011;20158;51.436;-2.742;2023-06-24T02:04:35;4.32;;;3.50;;
33862;SDS011;20158;51.436;-2.742;2023-06-24T02:07:02;3.80;;;3.50;;
33862;SDS011;20158;51.436;-2.742;2023-06-24T02:09:33;3.42;;;3.20;;
33862;SDS011;20158;51.436;-2.742;2023-06-24T02:12:03;4.45;;;3.80;;
33862;SDS011;20158;51.436;-2.742;2023-06-24T02:14:31;5.22;;;4.10;;
33862;SDS011;20158;51.436;-2.742;2023-06-24T02:16:59;4.00;;;3.70;;
33862;SDS011;20158;51.436;-2.742;2023-06-24T02:19:30;4.35;;;3.20;;
33862;SDS011;20158;51.436;-2.742;2023-06-24T02:21:57;3.80;;;3.50;;
33862;SDS011;20158;51.436;-2.742;2023-06-24T02:24:27;3.47;;;3.17;;
33862;SDS011;20158;51.436;-2.742;2023-06-24T02:26:58;3.95;;;3.65;;
33862;SDS011;20158;51.436;-2.742;2023-06-24T02:29:30;4.45;;;3.95;;
33862;SDS011;20158;51.436;-2.742;2023-06-24T02:31:58;4.43;;;3.33;;
33862;SDS011;20158;51.436;-2.742;2023-06-24T02:34:25;4.05;;;3.65;;
33862;SDS011;20158;51.436;-2.742;2023-06-24T02:36:51;4.00;;;3.60;;
33862;SDS011;20158;51.436;-2.742;2023-06-24T02:39:19;4.13;;;3.72;;
33862;SDS011;20158;51.436;-2.742;2023-06-24T02:41:46;5.05;;;3.75;;
33862;SDS011;20158;51.436;-2.742;2023-06-24T02:44:15;4.40;;;3.58;;
33862;SDS011;20158;51.436;-2.742;2023-06-24T02:46:42;4.93;;;3.88;;
33862;SDS011;20158;51.436;-2.742;2023-06-24T02:49:10;5.78;;;3.72;;
33862;SDS011;20158;51.436;-2.742;2023-06-24T02:51:39;4.32;;;3.92;;
33862;SDS011;20158;51.436;-2.742;2023-06-24T02:54:06;4.00;;;3.67;;
33862;SDS011;20158;51.436;-2.742;2023-06-24T02:56:55;5.38;;;4.05;;
33862;SDS011;20158;51.436;-2.742;2023-06-24T02:59:32;4.00;;;3.65;;
33862;SDS011;20158;51.436;-2.742;2023-06-24T03:02:02;4.28;;;3.88;;
33862;SDS011;20158;51.436;-2.742;2023-06-24T03:04:29;4.50;;;3.80;;
33862;SDS011;20158;51.436;-2.742;2023-06-24T03:06:56;4.68;;;4.22;;
33862;SDS011;20158;51.436;-2.742;2023-06-24T03:09:26;5.03;;;4.60;;
33862;SDS011;20158;51.436;-2.742;2023-06-24T03:11:52;4.03;;;3.72;;
33862;SDS011;20158;51.436;-2.742;2023-06-24T03:14:29;4.85;;;4.20;;
33862;SDS011;20158;51.436;-2.742;2023-06-24T03:16:56;4.13;;;3.72;;
33862;SDS011;20158;51.436;-2.742;2023-06-24T03:19:25;4.63;;;4.10;;
33862;SDS011;20158;51.436;-2.742;2023-06-24T03:21:51;5.00;;;3.90;;
33862;SDS011;20158;51.436;-2.742;2023-06-24T03:24:17;4.63;;;4.18;;
33862;SDS011;20158;51.436;-2.742;2023-06-24T03:26:47;5.00;;;4.53;;
33862;SDS011;20158;51.436;-2.742;2023-06-24T03:29:16;5.43;;;3.83;;
33862;SDS011;20158;51.436;-2.742;2023-06-24T03:32:01;4.20;;;3.65;;
33862;SDS011;20158;51.436;-2.742;2023-06-24T03:34:28;4.40;;;4.00;;
33862;SDS011;20158;51.436;-2.742;2023-06-24T03:36:57;5.70;;;4.20;;
33862;SDS011;20158;51.436;-2.742;2023-06-24T03:39:27;4.90;;;4.50;;
33862;SDS011;20158;51.436;-2.742;2023-06-24T03:41:55;4.80;;;4.00;;
33862;SDS011;20158;51.436;-2.742;2023-06-24T03:44:22;4.15;;;3.42;;
33862;SDS011;20158;51.436;-2.742;2023-06-24T03:46:51;4.63;;;4.22;;
33862;SDS011;20158;51.436;-2.742;2023-06-24T03:49:20;4.05;;;3.70;;
33862;SDS011;20158;51.436;-2.742;2023-06-24T03:51:50;5.18;;;4.00;;
33862;SDS011;20158;51.436;-2.742;2023-06-24T03:54:17;5.05;;;4.43;;
33862;SDS011;20158;51.436;-2.742;2023-06-24T03:56:43;5.78;;;5.20;;
33862;SDS011;20158;51.436;-2.742;2023-06-24T03:59:12;4.88;;;3.78;;
33862;SDS011;20158;51.436;-2.742;2023-06-24T04:01:42;4.32;;;3.75;;
33862;SDS011;20158;51.436;-2.742;2023-06-24T04:04:08;4.40;;;4.00;;
33862;SDS011;20158;51.436;-2.742;2023-06-24T04:06:35;4.53;;;4.00;;
33862;SDS011;20158;51.436;-2.742;2023-06-24T04:09:01;5.18;;;4.00;;
33862;SDS011;20158;51.436;-2.742;2023-06-24T04:11:28;5.10;;;4.55;;
33862;SDS011;20158;51.436;-2.742;2023-06-24T04:13:54;4.65;;;4.25;;
33862;SDS011;20158;51.436;-2.742;2023-06-24T04:16:20;5.65;;;4.18;;
33862;SDS011;20158;51.436;-2.742;2023-06-24T04:18:46;4.57;;;4.18;;
33862;SDS011;20158;51.436;-2.742;2023-06-24T04:21:13;4.93;;;4.53;;
33862;SDS011;20158;51.436;-2.742;2023-06-24T04:23:40;4.70;;;4.10;;
33862;SDS011;20158;51.436;-2.742;2023-06-24T04:26:06;4.57;;;4.20;;
33862;SDS011;20158;51.436;-2.742;2023-06-24T04:28:32;4.72;;;3.65;;
33862;SDS011;20158;51.436;-2.742;2023-06-24T04:31:00;4.68;;;4.35;;
33862;SDS011;20158;51.436;-2.742;2023-06-24T04:33:26;5.88;;;4.32;;
33862;SDS011;20158;51.436;-2.742;2023-06-24T04:35:52;4.90;;;4.50;;
33862;SDS011;20158;51.436;-2.742;2023-06-24T04:38:19;4.70;;;4.30;;
33862;SDS011;20158;51.436;-2.742;2023-06-24T04:40:47;4.68;;;4.20;;
33862;SDS011;20158;51.436;-2.742;2023-06-24T04:43:13;4.53;;;4.13;;
33862;SDS011;20158;51.436;-2.742;2023-06-24T04:45:40;4.28;;;3.97;;
33862;SDS011;20158;51.436;-2.742;2023-06-24T04:48:09;4.90;;;4.22;;
33862;SDS011;20158;51.436;-2.742;2023-06-24T04:50:35;4.90;;;4.47;;
33862;SDS011;20158;51.436;-2.742;2023-06-24T04:53:01;5.35;;;4.10;;
33862;SDS011;20158;51.436;-2.742;2023-06-24T04:55:27;4.28;;;3.92;;
33862;SDS011;20158;51.436;-2.742;2023-06-24T04:57:55;4.53;;;3.95;;
33862;SDS011;20158;51.436;-2.742;2023-06-24T05:00:22;4.20;;;3.85;;
33862;SDS011;20158;51.436;-2.742;2023-06-24T05:02:50;4.60;;;4.20;;
33862;SDS011;20158;51.436;-2.742;2023-06-24T05:05:16;4.28;;;3.95;;
33862;SDS011;20158;51.436;-2.742;2023-06-24T05:07:43;3.95;;;3.63;;
33862;SDS011;20158;51.436;-2.742;2023-06-24T05:10:09;4.38;;;3.97;;
33862;SDS011;20158;51.436;-2.742;2023-06-24T05:12:35;4.78;;;4.30;;
33862;SDS011;20158;51.436;-2.742;2023-06-24T05:15:01;4.60;;;4.20;;
33862;SDS011;20158;51.436;-2.742;2023-06-24T05:17:30;4.70;;;3.95;;
33862;SDS011;20158;51.436;-2.742;2023-06-24T05:19:56;5.03;;;4.57;;
33862;SDS011;20158;51.436;-2.742;2023-06-24T05:22:23;4.53;;;4.13;;
33862;SDS011;20158;51.436;-2.742;2023-06-24T05:24:49;4.32;;;3.95;;
33862;SDS011;20158;51.436;-2.742;2023-06-24T05:27:18;3.92;;;3.63;;
33862;SDS011;20158;51.436;-2.742;2023-06-24T05:29:47;4.72;;;4.10;;
33862;SDS011;20158;51.436;-2.742;2023-06-24T05:32:20;4.60;;;4.18;;
33862;SDS011;20158;51.436;-2.742;2023-06-24T05:34:46;10.75;;;4.43;;
33862;SDS011;20158;51.436;-2.742;2023-06-24T05:37:13;5.60;;;3.67;;
33862;SDS011;20158;51.436;-2.742;2023-06-24T05:39:39;3.85;;;3.53;;
33862;SDS011;20158;51.436;-2.742;2023-06-24T05:42:05;4.20;;;3.90;;
33862;SDS011;20158;51.436;-2.742;2023-06-24T05:44:32;3.88;;;3.58;;
33862;SDS011;20158;51.436;-2.742;2023-06-24T05:46:59;3.55;;;3.25;;
33862;SDS011;20158;51.436;-2.742;2023-06-24T05:49:25;3.97;;;3.60;;
33862;SDS011;20158;51.436;-2.742;2023-06-24T05:51:51;3.75;;;3.35;;
33862;SDS011;20158;51.436;-2.742;2023-06-24T05:54:17;4.15;;;3.85;;
33862;SDS011;20158;51.436;-2.742;2023-06-24T05:56:44;3.83;;;3.40;;
33862;SDS011;20158;51.436;-2.742;2023-06-24T05:59:10;4.00;;;3.50;;
33862;SDS011;20158;51.436;-2.742;2023-06-24T06:01:36;4.15;;;3.58;;
33862;SDS011;20158;51.436;-2.742;2023-06-24T06:04:02;3.72;;;3.40;;
33862;SDS011;20158;51.436;-2.742;2023-06-24T06:06:29;4.18;;;3.80;;
33862;SDS011;20158;51.436;-2.742;2023-06-24T06:08:56;5.80;;;3.97;;
33862;SDS011;20158;51.436;-2.742;2023-06-24T06:11:22;4.00;;;3.63;;
33862;SDS011;20158;51.436;-2.742;2023-06-24T06:13:48;4.20;;;3.80;;
33862;SDS011;20158;51.436;-2.742;2023-06-24T06:16:23;4.28;;;3.88;;
33862;SDS011;20158;51.436;-2.742;2023-06-24T06:18:53;4.28;;;3.85;;
33862;SDS011;20158;51.436;-2.742;2023-06-24T06:21:19;4.85;;;4.32;;
33862;SDS011;20158;51.436;-2.742;2023-06-24T06:23:46;4.78;;;4.28;;
33862;SDS011;20158;51.436;-2.742;2023-06-24T06:26:12;6.45;;;4.00;;
33862;SDS011;20158;51.436;-2.742;2023-06-24T06:28:38;4.47;;;3.92;;
33862;SDS011;20158;51.436;-2.742;2023-06-24T06:31:05;4.32;;;3.90;;
33862;SDS011;20158;51.436;-2.742;2023-06-24T06:33:31;4.70;;;3.90;;
33862;SDS011;20158;51.436;-2.742;2023-06-24T06:35:57;4.55;;;3.92;;
33862;SDS011;20158;51.436;-2.742;2023-06-24T06:38:24;3.53;;;3.22;;
33862;SDS011;20158;51.436;-2.742;2023-06-24T06:40:53;4.90;;;4.40;;
33862;SDS011;20158;51.436;-2.742;2023-06-24T06:43:19;4.45;;;4.05;;
33862;SDS011;20158;51.436;-2.742;2023-06-24T06:45:46;4.40;;;4.00;;
33862;SDS011;20158;51.436;-2.742;2023-06-24T06:48:12;4.93;;;3.97;;
33862;SDS011;20158;51.436;-2.742;2023-06-24T06:50:38;4.72;;;3.80;;
33862;SDS011;20158;51.436;-2.742;2023-06-24T06:53:04;5.30;;;4.07;;
33862;SDS011;20158;51.436;-2.742;2023-06-24T06:55:30;6.03;;;4.30;;
33862;SDS011;20158;51.436;-2.742;2023-06-24T06:57:57;4.53;;;3.50;;
33862;SDS011;20158;51.436;-2.742;2023-06-24T07:00:23;4.57;;;4.00;;
33862;SDS011;20158;51.436;-2.742;2023-06-24T07:02:50;5.32;;;4.60;;
33862;SDS011;20158;51.436;-2.742;2023-06-24T07:05:16;10.32;;;4.28;;
33862;SDS011;20158;51.436;-2.742;2023-06-24T07:08:05;10.93;;;4.72;;
33862;SDS011;20158;51.436;-2.742;2023-06-24T07:10:31;7.82;;;4.28;;
33862;SDS011;20158;51.436;-2.742;2023-06-24T07:12:57;4.43;;;4.03;;
33862;SDS011;20158;51.436;-2.742;2023-06-24T07:15:24;5.00;;;4.53;;
33862;SDS011;20158;51.436;-2.742;2023-06-24T07:17:51;5.72;;;4.15;;
33862;SDS011;20158;51.436;-2.742;2023-06-24T07:20:19;4.85;;;3.53;;
33862;SDS011;20158;51.436;-2.742;2023-06-24T07:22:46;5.07;;;4.07;;
33862;SDS011;20158;51.436;-2.742;2023-06-24T07:25:15;5.35;;;4.50;;
33862;SDS011;20158;51.436;-2.742;2023-06-24T07:27:47;4.50;;;4.10;;
33862;SDS011;20158;51.436;-2.742;2023-06-24T07:30:14;6.65;;;4.47;;
33862;SDS011;20158;51.436;-2.742;2023-06-24T07:32:43;7.55;;;3.85;;
33862;SDS011;20158;51.436;-2.742;2023-06-24T07:35:09;5.35;;;3.50;;
33862;SDS011;20158;51.436;-2.742;2023-06-24T07:37:37;4.60;;;3.92;;
33862;SDS011;20158;51.436;-2.742;2023-06-24T07:40:05;3.97;;;3.58;;
33862;SDS011;20158;51.436;-2.742;2023-06-24T07:42:34;4.53;;;4.20;;
33862;SDS011;20158;51.436;-2.742;2023-06-24T07:45:00;5.38;;;4.25;;
33862;SDS011;20158;51.436;-2.742;2023-06-24T07:47:26;5.78;;;4.55;;
33862;SDS011;20158;51.436;-2.742;2023-06-24T07:49:52;4.55;;;4.15;;
33862;SDS011;20158;51.436;-2.742;2023-06-24T07:52:18;4.65;;;4.05;;
33862;SDS011;20158;51.436;-2.742;2023-06-24T07:54:44;6.22;;;5.07;;
33862;SDS011;20158;51.436;-2.742;2023-06-24T07:57:19;5.18;;;4.63;;
33862;SDS011;20158;51.436;-2.742;2023-06-24T07:59:46;10.25;;;5.20;;
33862;SDS011;20158;51.436;-2.742;2023-06-24T08:02:30;14.77;;;7.13;;
33862;SDS011;20158;51.436;-2.742;2023-06-24T08:04:56;14.52;;;7.45;;
33862;SDS011;20158;51.436;-2.742;2023-06-24T08:07:29;21.13;;;9.00;;
33862;SDS011;20158;51.436;-2.742;2023-06-24T08:09:56;21.95;;;9.68;;
33862;SDS011;20158;51.436;-2.742;2023-06-24T08:12:22;22.35;;;9.38;;
33862;SDS011;20158;51.436;-2.742;2023-06-24T08:14:47;17.38;;;9.98;;
33862;SDS011;20158;51.436;-2.742;2023-06-24T08:17:19;22.83;;;9.50;;
33862;SDS011;20158;51.436;-2.742;2023-06-24T08:19:45;18.63;;;8.93;;
33862;SDS011;20158;51.436;-2.742;2023-06-24T08:22:12;21.45;;;10.90;;
33862;SDS011;20158;51.436;-2.742;2023-06-24T08:24:39;22.20;;;9.98;;
33862;SDS011;20158;51.436;-2.742;2023-06-24T08:27:05;21.20;;;10.55;;
33862;SDS011;20158;51.436;-2.742;2023-06-24T08:29:32;19.63;;;8.73;;
33862;SDS011;20158;51.436;-2.742;2023-06-24T08:31:58;21.60;;;9.40;;
33862;SDS011;20158;51.436;-2.742;2023-06-24T08:34:24;18.92;;;9.77;;
33862;SDS011;20158;51.436;-2.742;2023-06-24T08:36:50;18.95;;;9.57;;
33862;SDS011;20158;51.436;-2.742;2023-06-24T08:39:16;17.27;;;9.32;;
33862;SDS011;20158;51.436;-2.742;2023-06-24T08:41:42;15.88;;;8.45;;
33862;SDS011;20158;51.436;-2.742;2023-06-24T08:44:08;12.05;;;8.48;;
33862;SDS011;20158;51.436;-2.742;2023-06-24T08:46:34;13.80;;;8.00;;
33862;SDS011;20158;51.436;-2.742;2023-06-24T08:49:44;14.25;;;7.60;;
33862;SDS011;20158;51.436;-2.742;2023-06-24T08:54:41;11.23;;;7.22;;
33862;SDS011;20158;51.436;-2.742;2023-06-24T08:57:14;8.32;;;6.45;;
33862;SDS011;20158;51.436;-2.742;2023-06-24T08:59:41;10.85;;;6.68;;
33862;SDS011;20158;51.436;-2.742;2023-06-24T09:02:08;9.27;;;6.28;;
33862;SDS011;20158;51.436;-2.742;2023-06-24T09:04:34;9.02;;;5.90;;
33862;SDS011;20158;51.436;-2.742;2023-06-24T09:07:00;8.32;;;6.22;;
33862;SDS011;20158;51.436;-2.742;2023-06-24T09:09:26;7.05;;;5.60;;
33862;SDS011;20158;51.436;-2.742;2023-06-24T09:11:57;10.20;;;6.45;;
33862;SDS011;20158;51.436;-2.742;2023-06-24T09:14:28;7.47;;;5.47;;
33862;SDS011;20158;51.436;-2.742;2023-06-24T09:16:56;8.70;;;6.15;;
33862;SDS011;20158;51.436;-2.742;2023-06-24T09:19:24;8.65;;;5.63;;
33862;SDS011;20158;51.436;-2.742;2023-06-24T09:22:04;7.43;;;5.90;;
33862;SDS011;20158;51.436;-2.742;2023-06-24T09:24:36;7.45;;;4.97;;
33862;SDS011;20158;51.436;-2.742;2023-06-24T09:27:03;5.15;;;4.65;;
33862;SDS011;20158;51.436;-2.742;2023-06-24T09:29:33;6.18;;;4.53;;
33862;SDS011;20158;51.436;-2.742;2023-06-24T09:32:03;7.18;;;4.95;;
33862;SDS011;20158;51.436;-2.742;2023-06-24T09:34:37;6.22;;;4.80;;
33862;SDS011;20158;51.436;-2.742;2023-06-24T09:37:04;5.75;;;4.53;;
33862;SDS011;20158;51.436;-2.742;2023-06-24T09:39:35;5.15;;;3.95;;
33862;SDS011;20158;51.436;-2.742;2023-06-24T09:42:02;5.70;;;4.50;;
33862;SDS011;20158;51.436;-2.742;2023-06-24T09:44:30;5.03;;;4.10;;
33862;SDS011;20158;51.436;-2.742;2023-06-24T09:46:56;4.50;;;4.10;;
33862;SDS011;20158;51.436;-2.742;2023-06-24T09:49:23;5.30;;;4.13;;
33862;SDS011;20158;51.436;-2.742;2023-06-24T09:51:50;4.65;;;3.75;;
33862;SDS011;20158;51.436;-2.742;2023-06-24T09:54:26;4.22;;;3.85;;
33862;SDS011;20158;51.436;-2.742;2023-06-24T09:56:54;4.93;;;3.60;;
33862;SDS011;20158;51.436;-2.742;2023-06-24T09:59:25;4.95;;;3.60;;
33862;SDS011;20158;51.436;-2.742;2023-06-24T10:01:53;4.55;;;4.15;;
33862;SDS011;20158;51.436;-2.742;2023-06-24T10:04:23;4.75;;;3.53;;
33862;SDS011;20158;51.436;-2.742;2023-06-24T10:06:50;4.53;;;3.80;;
33862;SDS011;20158;51.436;-2.742;2023-06-24T10:09:16;3.42;;;3.08;;
33862;SDS011;20158;51.436;-2.742;2023-06-24T10:11:46;4.63;;;3.55;;
33862;SDS011;20158;51.436;-2.742;2023-06-24T10:14:16;3.92;;;3.33;;
33862;SDS011;20158;51.436;-2.742;2023-06-24T10:16:44;3.53;;;3.22;;
33862;SDS011;20158;51.436;-2.742;2023-06-24T10:19:18;3.38;;;3.05;;
33862;SDS011;20158;51.436;-2.742;2023-06-24T10:21:51;3.70;;;3.40;;
33862;SDS011;20158;51.436;-2.742;2023-06-24T10:24:31;4.78;;;4.32;;
33862;SDS011;20158;51.436;-2.742;2023-06-24T10:27:08;3.38;;;3.08;;
33862;SDS011;20158;51.436;-2.742;2023-06-24T10:29:46;4.32;;;3.35;;
33862;SDS011;20158;51.436;-2.742;2023-06-24T10:32:21;3.47;;;3.17;;
33862;SDS011;20158;51.436;-2.742;2023-06-24T10:34:54;3.40;;;3.10;;
33862;SDS011;20158;51.436;-2.742;2023-06-24T10:37:31;3.50;;;3.20;;
33862;SDS011;20158;51.436;-2.742;2023-06-24T10:39:58;3.35;;;3.05;;
33862;SDS011;20158;51.436;-2.742;2023-06-24T10:42:33;4.22;;;3.83;;
33862;SDS011;20158;51.436;-2.742;2023-06-24T10:47:45;3.58;;;3.28;;
33862;SDS011;20158;51.436;-2.742;2023-06-24T10:50:14;4.43;;;3.92;;
33862;SDS011;20158;51.436;-2.742;2023-06-24T10:52:47;4.03;;;3.53;;
33862;SDS011;20158;51.436;-2.742;2023-06-24T10:55:15;4.22;;;3.83;;
33862;SDS011;20158;51.436;-2.742;2023-06-24T10:57:42;5.20;;;3.72;;
33862;SDS011;20158;51.436;-2.742;2023-06-24T11:00:09;3.92;;;3.63;;
33862;SDS011;20158;51.436;-2.742;2023-06-24T11:02:36;3.95;;;3.38;;
33862;SDS011;20158;51.436;-2.742;2023-06-24T11:05:02;4.88;;;3.95;;
33862;SDS011;20158;51.436;-2.742;2023-06-24T11:07:37;4.63;;;3.33;;
33862;SDS011;20158;51.436;-2.742;2023-06-24T11:10:09;4.20;;;3.83;;
33862;SDS011;20158;51.436;-2.742;2023-06-24T11:12:38;4.30;;;3.22;;
33862;SDS011;20158;51.436;-2.742;2023-06-24T11:15:11;4.53;;;4.13;;
33862;SDS011;20158;51.436;-2.742;2023-06-24T11:17:39;4.07;;;3.50;;
33862;SDS011;20158;51.436;-2.742;2023-06-24T11:20:07;3.83;;;3.40;;
33862;SDS011;20158;51.436;-2.742;2023-06-24T11:22:34;3.53;;;3.08;;
33862;SDS011;20158;51.436;-2.742;2023-06-24T11:25:00;3.65;;;3.25;;
33862;SDS011;20158;51.436;-2.742;2023-06-24T11:27:32;3.38;;;2.95;;
33862;SDS011;20158;51.436;-2.742;2023-06-24T11:30:01;3.63;;;3.33;;
33862;SDS011;20158;51.436;-2.742;2023-06-24T11:32:35;3.80;;;3.40;;
33862;SDS011;20158;51.436;-2.742;2023-06-24T11:35:05;4.60;;;3.50;;
33862;SDS011;20158;51.436;-2.742;2023-06-24T11:37:33;4.80;;;3.30;;
33862;SDS011;20158;51.436;-2.742;2023-06-24T11:40:08;4.82;;;3.28;;
33862;SDS011;20158;51.436;-2.742;2023-06-24T11:42:38;3.70;;;2.92;;
33862;SDS011;20158;51.436;-2.742;2023-06-24T11:45:19;5.47;;;3.25;;
33862;SDS011;20158;51.436;-2.742;2023-06-24T11:47:47;3.58;;;3.17;;
33862;SDS011;20158;51.436;-2.742;2023-06-24T11:50:14;4.78;;;4.38;;
33862;SDS011;20158;51.436;-2.742;2023-06-24T11:52:49;6.25;;;4.03;;
33862;SDS011;20158;51.436;-2.742;2023-06-24T11:55:25;4.97;;;3.42;;
33862;SDS011;20158;51.436;-2.742;2023-06-24T11:57:55;5.50;;;3.80;;
33862;SDS011;20158;51.436;-2.742;2023-06-24T12:00:35;5.43;;;4.07;;
33862;SDS011;20158;51.436;-2.742;2023-06-24T12:03:04;8.10;;;5.05;;
33862;SDS011;20158;51.436;-2.742;2023-06-24T12:05:33;8.52;;;4.70;;
33862;SDS011;20158;51.436;-2.742;2023-06-24T12:08:07;10.73;;;5.73;;
33862;SDS011;20158;51.436;-2.742;2023-06-24T12:10:37;10.27;;;5.85;;
33862;SDS011;20158;51.436;-2.742;2023-06-24T12:13:04;8.00;;;4.80;;
33862;SDS011;20158;51.436;-2.742;2023-06-24T12:15:37;9.82;;;5.80;;
33862;SDS011;20158;51.436;-2.742;2023-06-24T12:18:29;6.45;;;5.05;;
33862;SDS011;20158;51.436;-2.742;2023-06-24T12:20:55;6.70;;;4.82;;
33862;SDS011;20158;51.436;-2.742;2023-06-24T12:23:21;6.40;;;4.72;;
33862;SDS011;20158;51.436;-2.742;2023-06-24T12:25:47;5.15;;;3.72;;
33862;SDS011;20158;51.436;-2.742;2023-06-24T12:28:14;6.13;;;3.92;;
33862;SDS011;20158;51.436;-2.742;2023-06-24T12:30:40;4.43;;;3.78;;
33862;SDS011;20158;51.436;-2.742;2023-06-24T12:33:06;5.43;;;4.22;;
33862;SDS011;20158;51.436;-2.742;2023-06-24T12:35:34;4.55;;;3.25;;
33862;SDS011;20158;51.436;-2.742;2023-06-24T12:38:03;4.22;;;3.83;;
33862;SDS011;20158;51.436;-2.742;2023-06-24T12:40:29;4.85;;;3.33;;
33862;SDS011;20158;51.436;-2.742;2023-06-24T12:42:55;4.38;;;3.30;;
33862;SDS011;20158;51.436;-2.742;2023-06-24T12:45:23;3.95;;;3.58;;
33862;SDS011;20158;51.436;-2.742;2023-06-24T12:47:49;3.13;;;2.88;;
33862;SDS011;20158;51.436;-2.742;2023-06-24T12:50:28;4.32;;;3.28;;
33862;SDS011;20158;51.436;-2.742;2023-06-24T12:52:57;19.15;;;4.53;;
33862;SDS011;20158;51.436;-2.742;2023-06-24T12:55:24;5.25;;;3.40;;
33862;SDS011;20158;51.436;-2.742;2023-06-24T12:57:49;4.88;;;3.17;;
33862;SDS011;20158;51.436;-2.742;2023-06-24T13:00:24;5.35;;;4.03;;
33862;SDS011;20158;51.436;-2.742;2023-06-24T13:02:50;5.60;;;3.70;;
33862;SDS011;20158;51.436;-2.742;2023-06-24T13:05:17;4.32;;;3.72;;
33862;SDS011;20158;51.436;-2.742;2023-06-24T13:07:43;5.00;;;3.80;;
33862;SDS011;20158;51.436;-2.742;2023-06-24T13:10:09;4.63;;;3.70;;
33862;SDS011;20158;51.436;-2.742;2023-06-24T13:12:36;3.90;;;3.20;;
33862;SDS011;20158;51.436;-2.742;2023-06-24T13:15:05;5.32;;;3.92;;
33862;SDS011;20158;51.436;-2.742;2023-06-24T13:17:32;4.30;;;3.72;;
33862;SDS011;20158;51.436;-2.742;2023-06-24T13:19:58;3.58;;;3.10;;
33862;SDS011;20158;51.436;-2.742;2023-06-24T13:22:29;4.20;;;3.80;;
33862;SDS011;20158;51.436;-2.742;2023-06-24T13:24:58;4.13;;;3.25;;
33862;SDS011;20158;51.436;-2.742;2023-06-24T13:27:25;4.85;;;3.03;;
33862;SDS011;20158;51.436;-2.742;2023-06-24T13:29:51;4.00;;;3.28;;
33862;SDS011;20158;51.436;-2.742;2023-06-24T13:32:20;4.18;;;3.40;;
33862;SDS011;20158;51.436;-2.742;2023-06-24T13:34:46;3.90;;;3.10;;
33862;SDS011;20158;51.436;-2.742;2023-06-24T13:37:12;4.00;;;3.20;;
33862;SDS011;20158;51.436;-2.742;2023-06-24T13:39:38;3.28;;;2.78;;
33862;SDS011;20158;51.436;-2.742;2023-06-24T13:42:04;3.55;;;2.92;;
33862;SDS011;20158;51.436;-2.742;2023-06-24T13:44:33;2.63;;;2.35;;
33862;SDS011;20158;51.436;-2.742;2023-06-24T13:46:59;2.90;;;2.00;;
33862;SDS011;20158;51.436;-2.742;2023-06-24T13:49:25;2.97;;;1.95;;
33862;SDS011;20158;51.436;-2.742;2023-06-24T13:51:52;2.70;;;1.95;;
33862;SDS011;20158;51.436;-2.742;2023-06-24T13:54:18;2.25;;;1.90;;
33862;SDS011;20158;51.436;-2.742;2023-06-24T13:56:44;2.22;;;1.92;;
33862;SDS011;20158;51.436;-2.742;2023-06-24T13:59:10;4.35;;;2.25;;
33862;SDS011;20158;51.436;-2.742;2023-06-24T14:01:39;2.20;;;1.60;;
33862;SDS011;20158;51.436;-2.742;2023-06-24T14:04:05;2.00;;;1.80;;
33862;SDS011;20158;51.436;-2.742;2023-06-24T14:06:31;3.97;;;2.70;;
33862;SDS011;20158;51.436;-2.742;2023-06-24T14:08:57;2.95;;;2.20;;
33862;SDS011;20158;51.436;-2.742;2023-06-24T14:11:23;4.32;;;2.20;;
33862;SDS011;20158;51.436;-2.742;2023-06-24T14:13:52;2.38;;;2.00;;
33862;SDS011;20158;51.436;-2.742;2023-06-24T14:16:19;3.60;;;2.22;;
33862;SDS011;20158;51.436;-2.742;2023-06-24T14:18:44;3.53;;;1.90;;
33862;SDS011;20158;51.436;-2.742;2023-06-24T14:21:10;2.42;;;1.98;;
33862;SDS011;20158;51.436;-2.742;2023-06-24T14:23:37;2.30;;;2.10;;
33862;SDS011;20158;51.436;-2.742;2023-06-24T14:26:05;4.05;;;2.15;;
33862;SDS011;20158;51.436;-2.742;2023-06-24T14:28:32;2.83;;;2.15;;
33862;SDS011;20158;51.436;-2.742;2023-06-24T14:30:57;2.38;;;2.10;;
33862;SDS011;20158;51.436;-2.742;2023-06-24T14:33:24;2.63;;;1.65;;
33862;SDS011;20158;51.436;-2.742;2023-06-24T14:35:53;2.13;;;1.65;;
33862;SDS011;20158;51.436;-2.742;2023-06-24T14:38:19;2.15;;;1.95;;
33862;SDS011;20158;51.436;-2.742;2023-06-24T14:40:54;2.05;;;1.70;;
33862;SDS011;20158;51.436;-2.742;2023-06-24T14:43:21;4.63;;;2.00;;
33862;SDS011;20158;51.436;-2.742;2023-06-24T14:45:47;1.95;;;1.77;;
33862;SDS011;20158;51.436;-2.742;2023-06-24T14:48:13;2.95;;;2.10;;
33862;SDS011;20158;51.436;-2.742;2023-06-24T14:50:39;2.63;;;1.90;;
33862;SDS011;20158;51.436;-2.742;2023-06-24T14:53:05;1.67;;;1.50;;
33862;SDS011;20158;51.436;-2.742;2023-06-24T14:55:36;3.15;;;1.70;;
33862;SDS011;20158;51.436;-2.742;2023-06-24T14:58:11;1.90;;;1.63;;
33862;SDS011;20158;51.436;-2.742;2023-06-24T15:00:39;2.03;;;1.60;;
33862;SDS011;20158;51.436;-2.742;2023-06-24T15:03:05;1.88;;;1.73;;
33862;SDS011;20158;51.436;-2.742;2023-06-24T15:05:32;2.13;;;1.67;;
33862;SDS011;20158;51.436;-2.742;2023-06-24T15:07:59;2.10;;;1.73;;